Terminal Aerodrome Forecast
Issued by NWS

Home | Current Version | Previous Version | Text Only | Print | Product List | Glossary On
Versions: 1 2 3 4 5 6 7 8 9 10 11 12 13 14 15 16 17 18 19 20 21
997
FTUS45 KTFX 141923 AAB
TAFBZN
TAF AMD
KBZN 141923Z 1419/1518 29011G21KT P6SM BKN090
     FM150100 25010KT P6SM SCT040 BKN070
     FM150600 VRB06KT 6SM -SNRA BR OVC035
      TEMPO 1509/1513 1SM BR SCT005 BKN010
     FM151500 24008KT P6SM OVC045=

USA.gov is the U.S. government's official web portal to all federal, state and local government web resources and services.